sensor_id;sensor_type;location;lat;lon;timestamp;P1;durP1;ratioP1;P2;durP2;ratioP2
16890;SDS011;8562;52.246;20.966;2022-07-29T00:01:25;2.23;;;1.63;;
16890;SDS011;8562;52.246;20.966;2022-07-29T00:03:51;4.50;;;2.67;;
16890;SDS011;8562;52.246;20.966;2022-07-29T00:06:17;2.83;;;2.07;;
16890;SDS011;8562;52.246;20.966;2022-07-29T00:08:43;2.40;;;1.90;;
16890;SDS011;8562;52.246;20.966;2022-07-29T00:11:09;4.80;;;2.20;;
16890;SDS011;8562;52.246;20.966;2022-07-29T00:13:35;5.60;;;2.33;;
16890;SDS011;8562;52.246;20.966;2022-07-29T00:16:02;5.63;;;2.30;;
16890;SDS011;8562;52.246;20.966;2022-07-29T00:18:28;4.13;;;1.90;;
16890;SDS011;8562;52.246;20.966;2022-07-29T00:20:54;2.83;;;2.03;;
16890;SDS011;8562;52.246;20.966;2022-07-29T00:23:20;2.87;;;1.93;;
16890;SDS011;8562;52.246;20.966;2022-07-29T00:25:46;2.97;;;1.80;;
16890;SDS011;8562;52.246;20.966;2022-07-29T00:28:12;4.50;;;1.80;;
16890;SDS011;8562;52.246;20.966;2022-07-29T00:30:38;2.97;;;1.63;;
16890;SDS011;8562;52.246;20.966;2022-07-29T00:33:08;3.63;;;1.53;;
16890;SDS011;8562;52.246;20.966;2022-07-29T00:35:34;2.70;;;1.73;;
16890;SDS011;8562;52.246;20.966;2022-07-29T00:38:10;3.47;;;1.60;;
16890;SDS011;8562;52.246;20.966;2022-07-29T00:40:36;2.67;;;1.67;;
16890;SDS011;8562;52.246;20.966;2022-07-29T00:43:02;3.33;;;2.30;;
16890;SDS011;8562;52.246;20.966;2022-07-29T00:45:29;1.90;;;1.50;;
16890;SDS011;8562;52.246;20.966;2022-07-29T00:47:55;2.60;;;1.80;;
16890;SDS011;8562;52.246;20.966;2022-07-29T00:50:21;2.93;;;1.53;;
16890;SDS011;8562;52.246;20.966;2022-07-29T00:52:48;3.03;;;1.57;;
16890;SDS011;8562;52.246;20.966;2022-07-29T00:55:15;3.73;;;1.33;;
16890;SDS011;8562;52.246;20.966;2022-07-29T00:57:42;3.10;;;1.50;;
16890;SDS011;8562;52.246;20.966;2022-07-29T01:00:09;1.83;;;1.60;;
16890;SDS011;8562;52.246;20.966;2022-07-29T01:02:36;3.80;;;1.67;;
16890;SDS011;8562;52.246;20.966;2022-07-29T01:05:02;4.23;;;2.00;;
16890;SDS011;8562;52.246;20.966;2022-07-29T01:07:30;2.27;;;2.00;;
16890;SDS011;8562;52.246;20.966;2022-07-29T01:09:56;3.43;;;1.80;;
16890;SDS011;8562;52.246;20.966;2022-07-29T01:12:23;3.63;;;2.30;;
16890;SDS011;8562;52.246;20.966;2022-07-29T01:14:50;2.10;;;1.90;;
16890;SDS011;8562;52.246;20.966;2022-07-29T01:20:03;3.53;;;2.13;;
16890;SDS011;8562;52.246;20.966;2022-07-29T01:30:05;2.03;;;1.50;;
16890;SDS011;8562;52.246;20.966;2022-07-29T01:32:33;1.57;;;1.40;;
16890;SDS011;8562;52.246;20.966;2022-07-29T01:39:56;3.77;;;1.53;;
16890;SDS011;8562;52.246;20.966;2022-07-29T01:47:40;1.73;;;1.60;;
16890;SDS011;8562;52.246;20.966;2022-07-29T01:50:08;1.50;;;1.40;;
16890;SDS011;8562;52.246;20.966;2022-07-29T01:52:37;1.93;;;1.73;;
16890;SDS011;8562;52.246;20.966;2022-07-29T01:55:10;2.50;;;1.80;;
16890;SDS011;8562;52.246;20.966;2022-07-29T01:57:38;3.43;;;1.80;;
16890;SDS011;8562;52.246;20.966;2022-07-29T02:00:06;2.80;;;1.20;;
16890;SDS011;8562;52.246;20.966;2022-07-29T02:02:41;1.50;;;1.40;;
16890;SDS011;8562;52.246;20.966;2022-07-29T02:05:09;1.60;;;1.47;;
16890;SDS011;8562;52.246;20.966;2022-07-29T02:07:36;2.17;;;1.37;;
16890;SDS011;8562;52.246;20.966;2022-07-29T02:10:03;2.00;;;1.63;;
16890;SDS011;8562;52.246;20.966;2022-07-29T02:12:30;2.50;;;1.37;;
16890;SDS011;8562;52.246;20.966;2022-07-29T02:14:59;5.13;;;1.70;;
16890;SDS011;8562;52.246;20.966;2022-07-29T02:17:27;2.77;;;1.50;;
16890;SDS011;8562;52.246;20.966;2022-07-29T02:19:56;3.50;;;1.73;;
16890;SDS011;8562;52.246;20.966;2022-07-29T02:22:23;2.90;;;1.47;;
16890;SDS011;8562;52.246;20.966;2022-07-29T02:24:50;1.47;;;1.20;;
16890;SDS011;8562;52.246;20.966;2022-07-29T02:27:17;4.43;;;1.57;;
16890;SDS011;8562;52.246;20.966;2022-07-29T02:29:43;1.43;;;1.20;;
16890;SDS011;8562;52.246;20.966;2022-07-29T02:32:11;1.90;;;1.50;;
16890;SDS011;8562;52.246;20.966;2022-07-29T02:34:39;3.13;;;1.47;;
16890;SDS011;8562;52.246;20.966;2022-07-29T02:37:05;2.63;;;1.80;;
16890;SDS011;8562;52.246;20.966;2022-07-29T02:39:34;1.47;;;1.27;;
16890;SDS011;8562;52.246;20.966;2022-07-29T02:42:03;2.40;;;1.30;;
16890;SDS011;8562;52.246;20.966;2022-07-29T02:44:29;1.20;;;1.10;;
16890;SDS011;8562;52.246;20.966;2022-07-29T02:47:07;1.57;;;1.13;;
16890;SDS011;8562;52.246;20.966;2022-07-29T02:52:12;3.23;;;1.90;;
16890;SDS011;8562;52.246;20.966;2022-07-29T02:57:34;1.63;;;1.30;;
16890;SDS011;8562;52.246;20.966;2022-07-29T03:00:06;1.33;;;1.23;;
16890;SDS011;8562;52.246;20.966;2022-07-29T03:02:34;2.23;;;1.30;;
16890;SDS011;8562;52.246;20.966;2022-07-29T03:05:03;1.30;;;1.20;;
16890;SDS011;8562;52.246;20.966;2022-07-29T03:07:29;1.60;;;1.10;;
16890;SDS011;8562;52.246;20.966;2022-07-29T03:09:56;2.30;;;1.37;;
16890;SDS011;8562;52.246;20.966;2022-07-29T03:12:22;1.93;;;1.30;;
16890;SDS011;8562;52.246;20.966;2022-07-29T03:14:49;1.20;;;1.10;;
16890;SDS011;8562;52.246;20.966;2022-07-29T03:17:15;1.33;;;1.23;;
16890;SDS011;8562;52.246;20.966;2022-07-29T03:19:41;3.03;;;1.10;;
16890;SDS011;8562;52.246;20.966;2022-07-29T03:22:08;2.27;;;1.47;;
16890;SDS011;8562;52.246;20.966;2022-07-29T03:24:35;1.30;;;1.10;;
16890;SDS011;8562;52.246;20.966;2022-07-29T03:27:02;2.20;;;1.33;;
16890;SDS011;8562;52.246;20.966;2022-07-29T03:29:28;2.73;;;1.37;;
16890;SDS011;8562;52.246;20.966;2022-07-29T03:31:54;0.97;;;0.97;;
16890;SDS011;8562;52.246;20.966;2022-07-29T03:34:21;4.13;;;1.53;;
16890;SDS011;8562;52.246;20.966;2022-07-29T03:36:47;4.17;;;1.00;;
16890;SDS011;8562;52.246;20.966;2022-07-29T03:39:15;2.37;;;1.13;;
16890;SDS011;8562;52.246;20.966;2022-07-29T03:41:42;1.53;;;1.03;;
16890;SDS011;8562;52.246;20.966;2022-07-29T03:44:10;2.17;;;1.20;;
16890;SDS011;8562;52.246;20.966;2022-07-29T03:46:36;2.27;;;1.50;;
16890;SDS011;8562;52.246;20.966;2022-07-29T03:49:06;1.17;;;1.07;;
16890;SDS011;8562;52.246;20.966;2022-07-29T03:51:33;1.83;;;1.13;;
16890;SDS011;8562;52.246;20.966;2022-07-29T03:54:01;2.40;;;1.57;;
16890;SDS011;8562;52.246;20.966;2022-07-29T03:56:27;1.83;;;1.23;;
16890;SDS011;8562;52.246;20.966;2022-07-29T03:58:54;1.97;;;1.63;;
16890;SDS011;8562;52.246;20.966;2022-07-29T04:01:21;2.33;;;1.70;;
16890;SDS011;8562;52.246;20.966;2022-07-29T04:03:48;1.70;;;1.60;;
16890;SDS011;8562;52.246;20.966;2022-07-29T04:06:14;7.57;;;1.60;;
16890;SDS011;8562;52.246;20.966;2022-07-29T04:08:40;1.83;;;1.23;;
16890;SDS011;8562;52.246;20.966;2022-07-29T04:11:07;1.13;;;1.03;;
16890;SDS011;8562;52.246;20.966;2022-07-29T04:13:33;1.67;;;1.20;;
16890;SDS011;8562;52.246;20.966;2022-07-29T04:15:59;1.33;;;1.23;;
16890;SDS011;8562;52.246;20.966;2022-07-29T04:18:25;1.20;;;1.10;;
16890;SDS011;8562;52.246;20.966;2022-07-29T04:20:51;3.20;;;1.30;;
16890;SDS011;8562;52.246;20.966;2022-07-29T04:23:17;1.47;;;1.00;;
16890;SDS011;8562;52.246;20.966;2022-07-29T04:25:44;4.60;;;1.50;;
16890;SDS011;8562;52.246;20.966;2022-07-29T04:28:10;1.50;;;1.10;;
16890;SDS011;8562;52.246;20.966;2022-07-29T04:30:36;1.87;;;0.97;;
16890;SDS011;8562;52.246;20.966;2022-07-29T04:33:04;2.47;;;1.03;;
16890;SDS011;8562;52.246;20.966;2022-07-29T04:35:31;1.50;;;1.30;;
16890;SDS011;8562;52.246;20.966;2022-07-29T04:37:59;1.63;;;0.80;;
16890;SDS011;8562;52.246;20.966;2022-07-29T04:40:25;1.37;;;1.00;;
16890;SDS011;8562;52.246;20.966;2022-07-29T04:42:51;1.47;;;1.07;;
16890;SDS011;8562;52.246;20.966;2022-07-29T04:45:17;1.50;;;1.20;;
16890;SDS011;8562;52.246;20.966;2022-07-29T04:47:43;4.53;;;0.87;;
16890;SDS011;8562;52.246;20.966;2022-07-29T04:50:09;1.63;;;1.40;;
16890;SDS011;8562;52.246;20.966;2022-07-29T04:52:36;2.20;;;0.70;;
16890;SDS011;8562;52.246;20.966;2022-07-29T04:55:03;3.20;;;0.80;;
16890;SDS011;8562;52.246;20.966;2022-07-29T04:57:29;1.40;;;0.83;;
16890;SDS011;8562;52.246;20.966;2022-07-29T04:59:55;1.70;;;1.07;;
16890;SDS011;8562;52.246;20.966;2022-07-29T05:02:21;2.13;;;0.87;;
16890;SDS011;8562;52.246;20.966;2022-07-29T05:04:48;2.40;;;1.00;;
16890;SDS011;8562;52.246;20.966;2022-07-29T05:07:14;1.13;;;1.03;;
16890;SDS011;8562;52.246;20.966;2022-07-29T05:09:40;1.47;;;0.73;;
16890;SDS011;8562;52.246;20.966;2022-07-29T05:12:07;1.83;;;1.00;;
16890;SDS011;8562;52.246;20.966;2022-07-29T05:14:33;1.87;;;1.17;;
16890;SDS011;8562;52.246;20.966;2022-07-29T05:16:59;1.73;;;1.00;;
16890;SDS011;8562;52.246;20.966;2022-07-29T05:19:25;2.20;;;0.90;;
16890;SDS011;8562;52.246;20.966;2022-07-29T05:21:51;1.30;;;1.07;;
16890;SDS011;8562;52.246;20.966;2022-07-29T05:24:17;1.47;;;0.93;;
16890;SDS011;8562;52.246;20.966;2022-07-29T05:26:44;3.83;;;1.03;;
16890;SDS011;8562;52.246;20.966;2022-07-29T05:29:10;2.23;;;1.37;;
16890;SDS011;8562;52.246;20.966;2022-07-29T05:31:36;4.37;;;1.20;;
16890;SDS011;8562;52.246;20.966;2022-07-29T05:34:02;0.70;;;0.70;;
16890;SDS011;8562;52.246;20.966;2022-07-29T05:36:28;1.23;;;1.00;;
16890;SDS011;8562;52.246;20.966;2022-07-29T05:38:54;2.97;;;0.73;;
16890;SDS011;8562;52.246;20.966;2022-07-29T05:41:20;0.80;;;0.80;;
16890;SDS011;8562;52.246;20.966;2022-07-29T05:43:46;1.83;;;0.87;;
16890;SDS011;8562;52.246;20.966;2022-07-29T05:46:13;3.33;;;0.80;;
16890;SDS011;8562;52.246;20.966;2022-07-29T05:48:39;1.17;;;0.87;;
16890;SDS011;8562;52.246;20.966;2022-07-29T05:51:05;1.17;;;0.93;;
16890;SDS011;8562;52.246;20.966;2022-07-29T05:53:31;0.87;;;0.67;;
16890;SDS011;8562;52.246;20.966;2022-07-29T05:55:57;0.93;;;0.93;;
16890;SDS011;8562;52.246;20.966;2022-07-29T05:58:23;1.63;;;0.57;;
16890;SDS011;8562;52.246;20.966;2022-07-29T06:00:50;0.80;;;0.60;;
16890;SDS011;8562;52.246;20.966;2022-07-29T06:03:16;2.23;;;0.83;;
16890;SDS011;8562;52.246;20.966;2022-07-29T06:05:42;3.37;;;1.10;;
16890;SDS011;8562;52.246;20.966;2022-07-29T06:08:08;1.43;;;1.10;;
16890;SDS011;8562;52.246;20.966;2022-07-29T06:10:34;1.00;;;0.90;;
16890;SDS011;8562;52.246;20.966;2022-07-29T06:13:00;0.97;;;0.77;;
16890;SDS011;8562;52.246;20.966;2022-07-29T06:15:26;0.80;;;0.43;;
16890;SDS011;8562;52.246;20.966;2022-07-29T06:17:53;0.87;;;0.67;;
16890;SDS011;8562;52.246;20.966;2022-07-29T06:20:19;0.40;;;0.40;;
16890;SDS011;8562;52.246;20.966;2022-07-29T06:22:45;2.13;;;0.67;;
16890;SDS011;8562;52.246;20.966;2022-07-29T06:25:11;0.77;;;0.40;;
16890;SDS011;8562;52.246;20.966;2022-07-29T06:27:37;1.73;;;0.50;;
16890;SDS011;8562;52.246;20.966;2022-07-29T06:30:04;1.60;;;0.80;;
16890;SDS011;8562;52.246;20.966;2022-07-29T06:32:32;2.27;;;0.80;;
16890;SDS011;8562;52.246;20.966;2022-07-29T06:34:58;0.90;;;0.50;;
16890;SDS011;8562;52.246;20.966;2022-07-29T06:37:24;4.53;;;0.90;;
16890;SDS011;8562;52.246;20.966;2022-07-29T06:39:50;0.83;;;0.50;;
16890;SDS011;8562;52.246;20.966;2022-07-29T06:42:37;0.50;;;0.50;;
16890;SDS011;8562;52.246;20.966;2022-07-29T06:45:03;1.27;;;0.80;;
16890;SDS011;8562;52.246;20.966;2022-07-29T06:47:29;2.63;;;0.83;;
16890;SDS011;8562;52.246;20.966;2022-07-29T06:49:55;0.70;;;0.70;;
16890;SDS011;8562;52.246;20.966;2022-07-29T06:52:21;0.60;;;0.60;;
16890;SDS011;8562;52.246;20.966;2022-07-29T06:54:47;1.53;;;0.70;;
16890;SDS011;8562;52.246;20.966;2022-07-29T06:57:14;0.83;;;0.57;;
16890;SDS011;8562;52.246;20.966;2022-07-29T06:59:40;1.40;;;0.60;;
16890;SDS011;8562;52.246;20.966;2022-07-29T07:02:06;1.93;;;0.70;;
16890;SDS011;8562;52.246;20.966;2022-07-29T07:04:32;1.93;;;0.80;;
16890;SDS011;8562;52.246;20.966;2022-07-29T07:06:58;1.40;;;0.67;;
16890;SDS011;8562;52.246;20.966;2022-07-29T07:09:25;0.73;;;0.50;;
16890;SDS011;8562;52.246;20.966;2022-07-29T07:11:51;2.70;;;0.60;;
16890;SDS011;8562;52.246;20.966;2022-07-29T07:14:17;3.73;;;0.80;;
16890;SDS011;8562;52.246;20.966;2022-07-29T07:16:43;1.83;;;0.60;;
16890;SDS011;8562;52.246;20.966;2022-07-29T07:19:09;5.37;;;0.83;;
16890;SDS011;8562;52.246;20.966;2022-07-29T07:21:35;1.30;;;1.20;;
16890;SDS011;8562;52.246;20.966;2022-07-29T07:24:02;2.63;;;0.47;;
16890;SDS011;8562;52.246;20.966;2022-07-29T07:26:28;1.60;;;0.53;;
16890;SDS011;8562;52.246;20.966;2022-07-29T07:28:54;2.50;;;1.13;;
16890;SDS011;8562;52.246;20.966;2022-07-29T07:31:20;1.27;;;0.70;;
16890;SDS011;8562;52.246;20.966;2022-07-29T07:33:46;3.27;;;0.73;;
16890;SDS011;8562;52.246;20.966;2022-07-29T07:36:13;0.93;;;0.73;;
16890;SDS011;8562;52.246;20.966;2022-07-29T07:38:39;2.10;;;0.60;;
16890;SDS011;8562;52.246;20.966;2022-07-29T07:41:05;1.10;;;0.80;;
16890;SDS011;8562;52.246;20.966;2022-07-29T07:43:31;1.43;;;0.70;;
16890;SDS011;8562;52.246;20.966;2022-07-29T07:45:57;0.40;;;0.40;;
16890;SDS011;8562;52.246;20.966;2022-07-29T07:48:23;1.87;;;0.73;;
16890;SDS011;8562;52.246;20.966;2022-07-29T07:50:49;0.73;;;0.70;;
16890;SDS011;8562;52.246;20.966;2022-07-29T07:53:16;2.27;;;1.90;;
16890;SDS011;8562;52.246;20.966;2022-07-29T07:55:42;1.80;;;0.83;;
16890;SDS011;8562;52.246;20.966;2022-07-29T07:58:09;2.40;;;0.70;;
16890;SDS011;8562;52.246;20.966;2022-07-29T08:00:35;0.83;;;0.80;;
16890;SDS011;8562;52.246;20.966;2022-07-29T08:03:02;0.50;;;0.50;;
16890;SDS011;8562;52.246;20.966;2022-07-29T08:05:28;1.13;;;0.73;;
16890;SDS011;8562;52.246;20.966;2022-07-29T08:07:54;3.77;;;0.70;;
16890;SDS011;8562;52.246;20.966;2022-07-29T08:10:21;1.40;;;0.70;;
16890;SDS011;8562;52.246;20.966;2022-07-29T08:13:06;0.67;;;0.57;;
16890;SDS011;8562;52.246;20.966;2022-07-29T08:15:32;0.83;;;0.80;;
16890;SDS011;8562;52.246;20.966;2022-07-29T08:17:59;1.13;;;0.50;;
16890;SDS011;8562;52.246;20.966;2022-07-29T08:20:25;1.40;;;0.70;;
16890;SDS011;8562;52.246;20.966;2022-07-29T08:22:51;1.70;;;0.97;;
16890;SDS011;8562;52.246;20.966;2022-07-29T08:25:18;1.60;;;1.00;;
16890;SDS011;8562;52.246;20.966;2022-07-29T08:27:48;0.77;;;0.60;;
16890;SDS011;8562;52.246;20.966;2022-07-29T08:30:14;0.70;;;0.47;;
16890;SDS011;8562;52.246;20.966;2022-07-29T08:32:41;2.33;;;1.00;;
16890;SDS011;8562;52.246;20.966;2022-07-29T08:35:07;1.40;;;1.07;;
16890;SDS011;8562;52.246;20.966;2022-07-29T08:37:34;3.17;;;0.70;;
16890;SDS011;8562;52.246;20.966;2022-07-29T08:40:00;0.60;;;0.50;;
16890;SDS011;8562;52.246;20.966;2022-07-29T08:42:26;1.37;;;0.70;;
16890;SDS011;8562;52.246;20.966;2022-07-29T08:44:52;0.77;;;0.67;;
16890;SDS011;8562;52.246;20.966;2022-07-29T08:47:19;2.43;;;0.57;;
16890;SDS011;8562;52.246;20.966;2022-07-29T08:49:46;1.37;;;0.60;;
16890;SDS011;8562;52.246;20.966;2022-07-29T08:52:13;1.17;;;0.60;;
16890;SDS011;8562;52.246;20.966;2022-07-29T08:54:40;0.77;;;0.67;;
16890;SDS011;8562;52.246;20.966;2022-07-29T08:57:09;1.30;;;0.80;;
16890;SDS011;8562;52.246;20.966;2022-07-29T08:59:36;1.30;;;0.80;;
16890;SDS011;8562;52.246;20.966;2022-07-29T09:02:03;2.33;;;0.73;;
16890;SDS011;8562;52.246;20.966;2022-07-29T09:04:30;1.30;;;0.80;;
16890;SDS011;8562;52.246;20.966;2022-07-29T09:07:00;3.27;;;0.67;;
16890;SDS011;8562;52.246;20.966;2022-07-29T09:09:30;1.30;;;0.80;;
16890;SDS011;8562;52.246;20.966;2022-07-29T09:11:57;1.73;;;0.60;;
16890;SDS011;8562;52.246;20.966;2022-07-29T09:14:24;1.23;;;0.80;;
16890;SDS011;8562;52.246;20.966;2022-07-29T09:16:54;0.60;;;0.60;;
16890;SDS011;8562;52.246;20.966;2022-07-29T09:21:50;0.73;;;0.70;;
16890;SDS011;8562;52.246;20.966;2022-07-29T09:26:51;0.60;;;0.50;;
16890;SDS011;8562;52.246;20.966;2022-07-29T09:29:19;1.57;;;0.60;;
16890;SDS011;8562;52.246;20.966;2022-07-29T09:31:46;0.60;;;0.60;;
16890;SDS011;8562;52.246;20.966;2022-07-29T09:34:17;1.37;;;0.53;;
16890;SDS011;8562;52.246;20.966;2022-07-29T09:36:44;1.67;;;0.70;;
16890;SDS011;8562;52.246;20.966;2022-07-29T09:39:10;1.13;;;0.63;;
16890;SDS011;8562;52.246;20.966;2022-07-29T09:44:15;0.50;;;0.50;;
16890;SDS011;8562;52.246;20.966;2022-07-29T09:49:20;1.07;;;0.70;;
16890;SDS011;8562;52.246;20.966;2022-07-29T09:51:46;0.67;;;0.63;;
16890;SDS011;8562;52.246;20.966;2022-07-29T09:54:22;1.57;;;0.80;;
16890;SDS011;8562;52.246;20.966;2022-07-29T09:56:48;1.73;;;0.43;;
16890;SDS011;8562;52.246;20.966;2022-07-29T09:59:14;1.60;;;0.60;;
16890;SDS011;8562;52.246;20.966;2022-07-29T10:01:41;0.70;;;0.63;;
16890;SDS011;8562;52.246;20.966;2022-07-29T10:04:07;2.40;;;0.60;;
16890;SDS011;8562;52.246;20.966;2022-07-29T10:06:33;0.80;;;0.53;;
16890;SDS011;8562;52.246;20.966;2022-07-29T10:09:09;1.37;;;0.50;;
16890;SDS011;8562;52.246;20.966;2022-07-29T10:11:36;1.47;;;0.70;;
16890;SDS011;8562;52.246;20.966;2022-07-29T10:14:03;1.23;;;0.77;;
16890;SDS011;8562;52.246;20.966;2022-07-29T10:16:29;0.40;;;0.40;;
16890;SDS011;8562;52.246;20.966;2022-07-29T10:19:00;2.57;;;0.90;;
16890;SDS011;8562;52.246;20.966;2022-07-29T10:21:27;1.40;;;1.20;;
16890;SDS011;8562;52.246;20.966;2022-07-29T10:23:54;0.73;;;0.60;;
16890;SDS011;8562;52.246;20.966;2022-07-29T10:26:21;0.70;;;0.70;;
16890;SDS011;8562;52.246;20.966;2022-07-29T10:28:47;0.73;;;0.40;;
16890;SDS011;8562;52.246;20.966;2022-07-29T10:31:15;0.97;;;0.60;;
16890;SDS011;8562;52.246;20.966;2022-07-29T10:42:02;1.33;;;0.60;;
16890;SDS011;8562;52.246;20.966;2022-07-29T10:44:32;2.17;;;0.80;;
16890;SDS011;8562;52.246;20.966;2022-07-29T10:46:59;0.53;;;0.40;;
16890;SDS011;8562;52.246;20.966;2022-07-29T10:49:25;1.07;;;0.40;;
16890;SDS011;8562;52.246;20.966;2022-07-29T10:52:08;1.27;;;0.70;;
16890;SDS011;8562;52.246;20.966;2022-07-29T10:54:45;0.70;;;0.50;;
16890;SDS011;8562;52.246;20.966;2022-07-29T10:59:39;1.10;;;0.60;;
16890;SDS011;8562;52.246;20.966;2022-07-29T11:07:16;0.93;;;0.77;;
16890;SDS011;8562;52.246;20.966;2022-07-29T11:09:43;0.67;;;0.50;;
16890;SDS011;8562;52.246;20.966;2022-07-29T11:14:55;1.73;;;0.83;;
16890;SDS011;8562;52.246;20.966;2022-07-29T11:17:22;1.83;;;0.60;;
16890;SDS011;8562;52.246;20.966;2022-07-29T11:19:48;1.23;;;0.47;;
16890;SDS011;8562;52.246;20.966;2022-07-29T11:22:33;0.87;;;0.60;;
16890;SDS011;8562;52.246;20.966;2022-07-29T11:25:16;1.70;;;0.50;;
16890;SDS011;8562;52.246;20.966;2022-07-29T11:27:44;1.27;;;0.60;;
16890;SDS011;8562;52.246;20.966;2022-07-29T11:30:10;0.80;;;0.70;;
16890;SDS011;8562;52.246;20.966;2022-07-29T11:32:38;0.50;;;0.50;;
16890;SDS011;8562;52.246;20.966;2022-07-29T11:35:11;1.03;;;0.50;;
16890;SDS011;8562;52.246;20.966;2022-07-29T11:37:38;0.73;;;0.40;;
16890;SDS011;8562;52.246;20.966;2022-07-29T11:45:05;1.40;;;0.67;;
16890;SDS011;8562;52.246;20.966;2022-07-29T11:47:34;0.70;;;0.63;;
16890;SDS011;8562;52.246;20.966;2022-07-29T11:50:06;0.90;;;0.57;;
16890;SDS011;8562;52.246;20.966;2022-07-29T11:52:37;0.90;;;0.57;;
16890;SDS011;8562;52.246;20.966;2022-07-29T11:55:08;0.40;;;0.40;;
16890;SDS011;8562;52.246;20.966;2022-07-29T11:57:35;0.77;;;0.40;;
16890;SDS011;8562;52.246;20.966;2022-07-29T12:00:03;0.50;;;0.40;;
16890;SDS011;8562;52.246;20.966;2022-07-29T12:02:39;2.67;;;0.70;;
16890;SDS011;8562;52.246;20.966;2022-07-29T12:05:07;0.80;;;0.60;;
16890;SDS011;8562;52.246;20.966;2022-07-29T12:07:33;2.20;;;0.50;;
16890;SDS011;8562;52.246;20.966;2022-07-29T12:10:00;0.33;;;0.33;;
16890;SDS011;8562;52.246;20.966;2022-07-29T12:12:26;0.80;;;0.67;;
16890;SDS011;8562;52.246;20.966;2022-07-29T12:14:53;1.30;;;0.43;;
16890;SDS011;8562;52.246;20.966;2022-07-29T12:17:30;0.80;;;0.57;;
16890;SDS011;8562;52.246;20.966;2022-07-29T12:19:56;1.03;;;0.73;;
16890;SDS011;8562;52.246;20.966;2022-07-29T12:24:52;0.50;;;0.50;;
16890;SDS011;8562;52.246;20.966;2022-07-29T12:27:19;0.40;;;0.40;;
16890;SDS011;8562;52.246;20.966;2022-07-29T12:29:54;0.40;;;0.40;;
16890;SDS011;8562;52.246;20.966;2022-07-29T12:32:21;0.57;;;0.57;;
16890;SDS011;8562;52.246;20.966;2022-07-29T12:34:48;0.40;;;0.40;;
16890;SDS011;8562;52.246;20.966;2022-07-29T12:37:14;0.73;;;0.60;;
16890;SDS011;8562;52.246;20.966;2022-07-29T12:39:41;0.60;;;0.60;;
16890;SDS011;8562;52.246;20.966;2022-07-29T12:42:14;0.30;;;0.30;;
16890;SDS011;8562;52.246;20.966;2022-07-29T12:44:44;0.23;;;0.23;;
16890;SDS011;8562;52.246;20.966;2022-07-29T12:47:10;0.50;;;0.50;;
16890;SDS011;8562;52.246;20.966;2022-07-29T12:49:36;0.30;;;0.30;;
16890;SDS011;8562;52.246;20.966;2022-07-29T12:52:22;1.40;;;0.70;;
16890;SDS011;8562;52.246;20.966;2022-07-29T12:54:48;1.10;;;0.50;;
16890;SDS011;8562;52.246;20.966;2022-07-29T12:57:15;0.70;;;0.40;;
16890;SDS011;8562;52.246;20.966;2022-07-29T12:59:41;0.40;;;0.40;;
16890;SDS011;8562;52.246;20.966;2022-07-29T13:02:09;1.27;;;0.73;;
16890;SDS011;8562;52.246;20.966;2022-07-29T13:04:54;0.70;;;0.50;;
16890;SDS011;8562;52.246;20.966;2022-07-29T13:07:23;1.70;;;0.83;;
16890;SDS011;8562;52.246;20.966;2022-07-29T13:09:50;1.27;;;0.70;;
16890;SDS011;8562;52.246;20.966;2022-07-29T13:12:16;0.77;;;0.67;;
16890;SDS011;8562;52.246;20.966;2022-07-29T13:14:44;0.47;;;0.47;;
16890;SDS011;8562;52.246;20.966;2022-07-29T13:17:14;1.33;;;0.73;;
16890;SDS011;8562;52.246;20.966;2022-07-29T13:22:08;0.60;;;0.60;;
16890;SDS011;8562;52.246;20.966;2022-07-29T13:24:44;0.50;;;0.50;;
16890;SDS011;8562;52.246;20.966;2022-07-29T13:27:10;0.67;;;0.40;;
16890;SDS011;8562;52.246;20.966;2022-07-29T13:29:36;0.60;;;0.60;;
16890;SDS011;8562;52.246;20.966;2022-07-29T13:32:05;1.53;;;0.50;;
16890;SDS011;8562;52.246;20.966;2022-07-29T13:34:31;0.30;;;0.30;;
16890;SDS011;8562;52.246;20.966;2022-07-29T13:36:57;0.87;;;0.50;;
16890;SDS011;8562;52.246;20.966;2022-07-29T13:39:23;0.37;;;0.37;;
16890;SDS011;8562;52.246;20.966;2022-07-29T13:41:49;1.07;;;0.70;;
16890;SDS011;8562;52.246;20.966;2022-07-29T13:44:15;0.50;;;0.50;;
16890;SDS011;8562;52.246;20.966;2022-07-29T13:46:42;0.97;;;0.73;;
16890;SDS011;8562;52.246;20.966;2022-07-29T13:49:08;1.07;;;0.70;;
16890;SDS011;8562;52.246;20.966;2022-07-29T13:51:36;0.40;;;0.40;;
16890;SDS011;8562;52.246;20.966;2022-07-29T13:54:02;0.80;;;0.50;;
16890;SDS011;8562;52.246;20.966;2022-07-29T13:56:28;1.93;;;0.50;;
16890;SDS011;8562;52.246;20.966;2022-07-29T13:58:54;1.80;;;0.53;;
16890;SDS011;8562;52.246;20.966;2022-07-29T14:01:21;1.10;;;0.63;;
16890;SDS011;8562;52.246;20.966;2022-07-29T14:03:47;0.43;;;0.43;;
16890;SDS011;8562;52.246;20.966;2022-07-29T14:06:13;1.00;;;0.90;;
16890;SDS011;8562;52.246;20.966;2022-07-29T14:08:39;1.07;;;0.60;;
16890;SDS011;8562;52.246;20.966;2022-07-29T14:11:05;0.40;;;0.40;;
16890;SDS011;8562;52.246;20.966;2022-07-29T14:13:32;1.83;;;0.70;;
16890;SDS011;8562;52.246;20.966;2022-07-29T14:15:58;2.53;;;0.60;;
16890;SDS011;8562;52.246;20.966;2022-07-29T14:18:24;0.43;;;0.40;;
16890;SDS011;8562;52.246;20.966;2022-07-29T14:20:50;1.00;;;0.50;;
16890;SDS011;8562;52.246;20.966;2022-07-29T14:23:17;1.10;;;0.53;;
16890;SDS011;8562;52.246;20.966;2022-07-29T14:25:43;1.73;;;0.63;;
16890;SDS011;8562;52.246;20.966;2022-07-29T14:28:09;0.57;;;0.53;;
16890;SDS011;8562;52.246;20.966;2022-07-29T14:30:35;1.23;;;0.60;;
16890;SDS011;8562;52.246;20.966;2022-07-29T14:33:02;0.40;;;0.40;;
16890;SDS011;8562;52.246;20.966;2022-07-29T14:35:28;0.73;;;0.50;;
16890;SDS011;8562;52.246;20.966;2022-07-29T14:37:54;0.93;;;0.60;;
16890;SDS011;8562;52.246;20.966;2022-07-29T14:40:20;0.73;;;0.60;;
16890;SDS011;8562;52.246;20.966;2022-07-29T14:42:46;0.90;;;0.53;;
16890;SDS011;8562;52.246;20.966;2022-07-29T14:45:12;1.70;;;0.50;;
16890;SDS011;8562;52.246;20.966;2022-07-29T14:47:39;1.00;;;0.50;;
16890;SDS011;8562;52.246;20.966;2022-07-29T14:50:05;0.93;;;0.53;;
16890;SDS011;8562;52.246;20.966;2022-07-29T14:52:32;0.57;;;0.57;;
16890;SDS011;8562;52.246;20.966;2022-07-29T14:54:58;0.63;;;0.30;;
16890;SDS011;8562;52.246;20.966;2022-07-29T14:57:24;2.07;;;0.73;;
16890;SDS011;8562;52.246;20.966;2022-07-29T14:59:50;0.50;;;0.50;;
16890;SDS011;8562;52.246;20.966;2022-07-29T15:02:17;0.40;;;0.40;;
16890;SDS011;8562;52.246;20.966;2022-07-29T15:04:43;0.63;;;0.43;;
16890;SDS011;8562;52.246;20.966;2022-07-29T15:07:11;1.13;;;0.63;;
16890;SDS011;8562;52.246;20.966;2022-07-29T15:09:37;1.57;;;0.73;;
16890;SDS011;8562;52.246;20.966;2022-07-29T15:12:03;0.33;;;0.33;;
16890;SDS011;8562;52.246;20.966;2022-07-29T15:14:30;2.50;;;0.50;;
16890;SDS011;8562;52.246;20.966;2022-07-29T15:16:56;4.10;;;0.63;;
16890;SDS011;8562;52.246;20.966;2022-07-29T15:19:23;0.93;;;0.60;;
16890;SDS011;8562;52.246;20.966;2022-07-29T15:21:49;0.60;;;0.60;;
16890;SDS011;8562;52.246;20.966;2022-07-29T15:24:16;1.10;;;0.57;;
16890;SDS011;8562;52.246;20.966;2022-07-29T15:26:42;0.60;;;0.40;;
16890;SDS011;8562;52.246;20.966;2022-07-29T15:29:09;0.67;;;0.50;;
16890;SDS011;8562;52.246;20.966;2022-07-29T15:31:35;1.17;;;0.50;;
16890;SDS011;8562;52.246;20.966;2022-07-29T15:34:01;0.50;;;0.50;;
16890;SDS011;8562;52.246;20.966;2022-07-29T15:36:27;2.23;;;0.60;;
16890;SDS011;8562;52.246;20.966;2022-07-29T15:38:54;1.17;;;0.57;;
16890;SDS011;8562;52.246;20.966;2022-07-29T15:41:21;0.80;;;0.60;;
16890;SDS011;8562;52.246;20.966;2022-07-29T15:43:47;0.73;;;0.50;;
16890;SDS011;8562;52.246;20.966;2022-07-29T15:46:14;1.10;;;0.90;;
16890;SDS011;8562;52.246;20.966;2022-07-29T15:49:00;1.20;;;0.50;;
16890;SDS011;8562;52.246;20.966;2022-07-29T15:51:26;0.40;;;0.30;;
16890;SDS011;8562;52.246;20.966;2022-07-29T15:53:53;0.57;;;0.50;;